sim
Sign-in with your pilot id or email,
or register
Callsign
Passwort

Schedule Details

Flight Number: RYR2170 (1)
Departure: Thessaloniki International Airport (LGTS) at 07:05
Arrival: Bratislava M. R. Stefanik Airport (LZIB) at 08:55
Route: Ryanair Passenger Schedule. Enter filed route here before submitting Pirep.

Weather Information
Getting current METAR information for LGTS 230620Z VRB02KT CAVOK 28/18 Q1019 NOSIG
Getting current METAR information for LZIB 230630Z VRB02KT CAVOK 21/17 Q1025 NOSIG

Schedule Frequency

Route Map